Main page
METAR-TAF:

METAR-TAF

Airports :

Simón Bolívar International Airport

Caracas, Venezuela

latitude: 10-36N, longitude: 066-59W, elevation: 43 m

Current weather observation

The report was made 32 minutes ago, at 21:00 UTC
Wind 2 kt from the East/Northeast
Temperature 29°C
Humidity 74%
Pressure 1013 hPa
Visibility 10 km or more
Broken clouds at a height of 1600 ft

METAR: SVMI 252100Z 07002KT 9999 BKN016 29/24 Q1013

Time: 17:32 (21:32 UTC)

Forecast

The report was made 5 hours and 32 minutes ago, at 16:00 UTC
Forecast valid from 25 at 18 UTC to 26 at 18 UTC
Wind 5 kt from the East
Visibility 10 km or more
Few clouds at a height of 1600 ft
Scattered clouds at a height of 10000 ft
Probability 30% :
Temporary
from 25 at 18 UTC to 25 at 22 UTC
Wind 1 kt from the East
Visibility: 9000 m
Broken clouds at a height of 1600 ft
light drizzle

TAF: SVMI 251600Z 2518/2618 09005KT 9999 FEW016 SCT100 TX33/2518Z TN23/2508Z PROB30 TEMPO 2518/2522 09001KT 9000 -DZ BKN016

Weather observations and forecasts of more than 4000 airports (METAR and TAF reports).

The available stations are represented by yellow and red dots on the map.

Hover mouse over dot to see the name of the station.

Then click to see weather observations and forecasts.

To change the map : click on the green buttons with a black cross to zoom in, on the green button with a dash to zoom out, or on the green arrows for adjacent maps.


METAR-TAF: